createdAt,value
2023-02-19T00:00:58.316Z,31
2023-02-19T00:01:59.352Z,32
2023-02-19T00:03:00.274Z,31
2023-02-19T00:04:01.169Z,31
2023-02-19T00:05:02.326Z,31
2023-02-19T00:06:03.127Z,31
2023-02-19T00:07:04.274Z,31
2023-02-19T00:08:05.234Z,31
2023-02-19T00:09:06.293Z,31
2023-02-19T00:10:07.253Z,31
2023-02-19T00:11:08.563Z,31
2023-02-19T00:12:09.292Z,31
2023-02-19T00:13:10.335Z,31
2023-02-19T00:14:11.277Z,31
2023-02-19T00:15:12.277Z,30
2023-02-19T00:16:13.253Z,30
2023-02-19T00:17:14.273Z,30
2023-02-19T00:18:15.194Z,30
2023-02-19T00:19:16.520Z,31
2023-02-19T00:20:18.234Z,30
2023-02-19T00:21:19.261Z,30
2023-02-19T00:22:20.174Z,30
2023-02-19T00:23:21.212Z,30
2023-02-19T00:24:22.232Z,30
2023-02-19T00:25:23.193Z,31
2023-02-19T00:26:24.178Z,30
2023-02-19T00:27:25.127Z,30
2023-02-19T00:28:26.047Z,29
2023-02-19T00:29:27.284Z,29
2023-02-19T00:30:28.273Z,28
2023-02-19T00:31:31.534Z,27
2023-02-19T00:32:30.215Z,28
2023-02-19T00:33:31.262Z,28
2023-02-19T00:34:32.199Z,28
2023-02-19T00:35:33.275Z,28
2023-02-19T00:36:34.297Z,28
2023-02-19T00:37:35.219Z,29
2023-02-19T00:38:36.256Z,29
2023-02-19T00:39:37.257Z,29
2023-02-19T00:40:38.183Z,29
2023-02-19T00:41:39.295Z,29
2023-02-19T00:42:40.296Z,29
2023-02-19T00:43:41.215Z,29
2023-02-19T00:44:42.304Z,30
2023-02-19T00:45:43.217Z,30
2023-02-19T00:46:44.311Z,30
2023-02-19T00:47:45.310Z,30
2023-02-19T00:48:46.226Z,30
2023-02-19T00:49:47.298Z,30
2023-02-19T00:50:49.299Z,31
2023-02-19T00:51:50.168Z,33
2023-02-19T00:52:51.158Z,33
2023-02-19T00:53:52.240Z,33
2023-02-19T00:54:53.177Z,31
2023-02-19T00:55:54.207Z,31
2023-02-19T00:56:55.264Z,33
2023-02-19T00:57:56.297Z,33
2023-02-19T00:58:57.279Z,33
2023-02-19T00:59:58.258Z,33
2023-02-19T01:01:25.066Z,34
2023-02-19T01:02:19.262Z,34
2023-02-19T01:03:20.240Z,34
2023-02-19T01:04:21.216Z,33
2023-02-19T01:05:22.236Z,33
2023-02-19T01:06:23.254Z,33
2023-02-19T01:07:24.257Z,33
2023-02-19T01:08:25.229Z,34
2023-02-19T01:09:26.158Z,34
2023-02-19T01:10:27.256Z,34
2023-02-19T01:11:28.197Z,34
2023-02-19T01:12:29.233Z,34
2023-02-19T01:13:30.212Z,36
2023-02-19T01:14:31.306Z,36
2023-02-19T01:15:32.240Z,37
2023-02-19T01:16:33.258Z,37
2023-02-19T01:17:34.218Z,37
2023-02-19T01:18:35.258Z,36
2023-02-19T01:19:36.473Z,37
2023-02-19T01:20:38.292Z,36
2023-02-19T01:21:39.319Z,34
2023-02-19T01:22:40.291Z,34
2023-02-19T01:23:41.280Z,35
2023-02-19T01:24:42.279Z,35
2023-02-19T01:25:43.203Z,35
2023-02-19T01:26:44.232Z,35
2023-02-19T01:27:45.248Z,36
2023-02-19T01:28:46.194Z,35
2023-02-19T01:29:47.205Z,35
2023-02-19T01:30:48.212Z,34
2023-02-19T01:31:49.296Z,34
2023-02-19T01:32:50.219Z,-1
2023-02-19T01:33:51.297Z,34
2023-02-19T01:34:52.232Z,34
2023-02-19T01:35:53.297Z,34
2023-02-19T01:36:54.272Z,35
2023-02-19T01:37:55.291Z,34
2023-02-19T01:38:56.159Z,34
2023-02-19T01:39:57.253Z,33
2023-02-19T01:40:58.314Z,34
2023-02-19T01:41:59.273Z,34
2023-02-19T01:43:00.347Z,34
2023-02-19T01:44:01.234Z,34
2023-02-19T01:45:02.322Z,34
2023-02-19T01:46:03.261Z,35
2023-02-19T01:47:04.293Z,36
2023-02-19T01:48:05.337Z,36
2023-02-19T01:49:06.335Z,35
2023-02-19T01:50:07.332Z,36
2023-02-19T01:51:08.664Z,35
2023-02-19T01:52:09.381Z,36
2023-02-19T01:53:11.514Z,36
2023-02-19T01:54:13.337Z,36
2023-02-19T01:55:14.294Z,36
2023-02-19T01:56:15.231Z,35
2023-02-19T01:57:16.482Z,35
2023-02-19T01:58:18.335Z,35
2023-02-19T01:59:19.287Z,35
2023-02-19T02:00:20.181Z,36
2023-02-19T02:01:21.195Z,36
2023-02-19T02:02:22.215Z,36
2023-02-19T02:06:32.440Z,37
2023-02-19T02:07:33.224Z,38
2023-02-19T02:08:34.197Z,37
2023-02-19T02:09:35.312Z,38
2023-02-19T02:10:36.258Z,38
2023-02-19T02:11:37.301Z,38
2023-02-19T02:12:38.256Z,38
2023-02-19T02:13:39.295Z,38
2023-02-19T02:14:40.221Z,38
2023-02-19T02:15:41.177Z,38
2023-02-19T02:16:42.270Z,38
2023-02-19T02:17:43.244Z,37
2023-02-19T02:18:44.365Z,38
2023-02-19T02:19:45.276Z,38
2023-02-19T02:20:46.342Z,38
2023-02-19T02:21:47.318Z,38
2023-02-19T02:22:48.191Z,38
2023-02-19T02:23:49.368Z,38
2023-02-19T02:24:50.285Z,38
2023-02-19T02:25:51.265Z,38
2023-02-19T02:26:52.267Z,38
2023-02-19T02:27:53.265Z,38
2023-02-19T02:28:54.230Z,38
2023-02-19T02:29:55.309Z,38
2023-02-19T02:30:56.317Z,38
2023-02-19T02:31:57.461Z,38
2023-02-19T02:32:58.264Z,38
2023-02-19T02:33:59.344Z,38
2023-02-19T02:35:00.305Z,37
2023-02-19T02:36:01.253Z,36
2023-02-19T02:37:02.339Z,36
2023-02-19T02:38:03.324Z,36
2023-02-19T02:39:04.344Z,36
2023-02-19T02:40:05.226Z,36
2023-02-19T02:41:06.240Z,35
2023-02-19T02:42:07.326Z,35
2023-02-19T02:43:08.357Z,35
2023-02-19T02:44:09.281Z,34
2023-02-19T02:45:10.284Z,34
2023-02-19T02:46:11.158Z,34
2023-02-19T02:47:12.164Z,34
2023-02-19T02:48:13.247Z,35
2023-02-19T02:49:14.225Z,35
2023-02-19T02:50:15.223Z,35
2023-02-19T02:51:16.289Z,35
2023-02-19T02:52:17.325Z,36
2023-02-19T02:53:18.259Z,36
2023-02-19T02:54:19.262Z,36
2023-02-19T02:55:20.250Z,36
2023-02-19T02:56:21.332Z,37
2023-02-19T02:57:22.351Z,37
2023-02-19T02:58:23.365Z,37
2023-02-19T02:59:24.172Z,37
2023-02-19T03:00:25.274Z,37
2023-02-19T03:01:26.303Z,37
2023-02-19T03:02:27.332Z,37
2023-02-19T03:03:28.243Z,38
2023-02-19T03:04:29.315Z,38
2023-02-19T03:05:30.292Z,38
2023-02-19T03:06:31.245Z,38
2023-02-19T03:07:32.189Z,39
2023-02-19T03:08:33.158Z,39
2023-02-19T03:09:34.234Z,39
2023-02-19T03:10:35.312Z,39
2023-02-19T03:11:36.266Z,39
2023-02-19T03:12:37.390Z,39
2023-02-19T03:13:38.224Z,40
2023-02-19T03:14:39.247Z,40
2023-02-19T03:15:40.266Z,40
2023-02-19T03:16:42.872Z,40
2023-02-19T03:17:42.206Z,41
2023-02-19T03:18:43.226Z,40
2023-02-19T03:19:44.323Z,40
2023-02-19T03:20:45.304Z,40
2023-02-19T03:21:46.263Z,40
2023-02-19T03:22:47.313Z,40
2023-02-19T03:23:48.358Z,39
2023-02-19T03:24:49.295Z,39
2023-02-19T03:25:50.525Z,39
2023-02-19T03:26:51.342Z,39
2023-02-19T03:27:52.260Z,38
2023-02-19T03:28:53.293Z,38
2023-02-19T03:29:54.360Z,38
2023-02-19T03:30:55.446Z,38
2023-02-19T03:31:56.377Z,38
2023-02-19T03:32:57.280Z,37
2023-02-19T03:33:58.319Z,37
2023-02-19T03:34:59.480Z,37
2023-02-19T03:36:00.355Z,37
2023-02-19T03:37:01.297Z,37
2023-02-19T03:38:02.382Z,37
2023-02-19T03:39:03.307Z,37
2023-02-19T03:40:04.195Z,37
2023-02-19T03:41:05.563Z,37
2023-02-19T03:42:07.401Z,38
2023-02-19T03:43:08.360Z,38
2023-02-19T03:44:09.307Z,38
2023-02-19T03:45:10.302Z,38
2023-02-19T03:46:11.480Z,37
2023-02-19T03:47:12.343Z,37
2023-02-19T03:48:13.383Z,38
2023-02-19T03:49:14.339Z,38
2023-02-19T03:50:15.359Z,37
2023-02-19T03:51:16.259Z,37
2023-02-19T03:52:17.283Z,38
2023-02-19T03:53:18.268Z,38
2023-02-19T03:54:19.304Z,38
2023-02-19T03:55:20.304Z,38
2023-02-19T03:56:21.348Z,38
2023-02-19T03:57:22.262Z,38
2023-02-19T03:58:23.220Z,39
2023-02-19T03:59:24.259Z,40
2023-02-19T04:00:25.364Z,41
2023-02-19T04:01:26.325Z,41
2023-02-19T04:02:27.330Z,42
2023-02-19T04:03:28.335Z,42
2023-02-19T04:04:32.408Z,44
2023-02-19T04:05:33.404Z,45
2023-02-19T04:06:34.394Z,47
2023-02-19T04:07:35.505Z,47
2023-02-19T04:08:36.386Z,47
2023-02-19T04:09:37.345Z,47
2023-02-19T04:10:38.687Z,49
2023-02-19T04:11:40.347Z,49
2023-02-19T04:12:41.277Z,49
2023-02-19T04:13:42.426Z,49
2023-02-19T04:14:43.353Z,50
2023-02-19T04:15:44.546Z,50
2023-02-19T04:16:46.440Z,50
2023-02-19T04:17:47.447Z,50
2023-02-19T04:18:48.456Z,50
2023-02-19T04:19:49.351Z,49
2023-02-19T04:20:50.321Z,48
2023-02-19T04:21:51.667Z,49
2023-02-19T04:22:53.409Z,49
2023-02-19T04:23:54.387Z,49
2023-02-19T04:24:55.268Z,48
2023-02-19T04:25:56.266Z,48
2023-02-19T04:26:57.305Z,47
2023-02-19T04:27:58.325Z,48
2023-02-19T04:28:59.270Z,46
2023-02-19T04:30:00.354Z,46
2023-02-19T04:31:01.294Z,44
2023-02-19T04:32:02.512Z,45
2023-02-19T04:33:03.345Z,44
2023-02-19T04:34:04.382Z,44
2023-02-19T04:35:05.337Z,44
2023-02-19T04:36:06.423Z,45
2023-02-19T04:37:07.480Z,45
2023-02-19T04:38:09.374Z,45
2023-02-19T04:39:10.337Z,44
2023-02-19T04:40:11.371Z,44
2023-02-19T04:41:12.597Z,42
2023-02-19T04:42:13.281Z,42
2023-02-19T04:43:14.519Z,42
2023-02-19T04:44:15.306Z,43
2023-02-19T04:45:16.603Z,44
2023-02-19T04:46:18.402Z,44
2023-02-19T04:47:19.358Z,44
2023-02-19T04:48:20.323Z,44
2023-02-19T04:49:21.406Z,44
2023-02-19T04:50:22.359Z,44
2023-02-19T04:51:23.415Z,44
2023-02-19T04:52:24.879Z,45
2023-02-19T04:53:26.380Z,46
2023-02-19T04:54:27.419Z,46
2023-02-19T04:55:28.349Z,45
2023-02-19T04:56:31.360Z,44
2023-02-19T04:57:34.380Z,42
2023-02-19T04:58:35.387Z,44
2023-02-19T04:59:36.418Z,44
2023-02-19T05:00:37.504Z,45
2023-02-19T05:01:41.117Z,45
2023-02-19T05:02:50.379Z,45
2023-02-19T05:03:58.222Z,46
2023-02-19T05:05:08.739Z,46
2023-02-19T05:06:12.521Z,46
2023-02-19T05:07:13.396Z,46
2023-02-19T05:08:14.458Z,45
2023-02-19T05:09:15.441Z,46
2023-02-19T05:10:16.359Z,46
2023-02-19T05:11:17.400Z,46
2023-02-19T05:12:18.357Z,46
2023-02-19T05:13:19.428Z,46
2023-02-19T05:14:20.370Z,46
2023-02-19T05:15:21.359Z,46
2023-02-19T05:16:22.379Z,47
2023-02-19T05:17:23.399Z,46
2023-02-19T05:18:24.539Z,46
2023-02-19T05:19:26.339Z,47
2023-02-19T05:20:27.319Z,47
2023-02-19T05:21:28.444Z,46
2023-02-19T05:22:29.391Z,46
2023-02-19T05:23:30.431Z,45
2023-02-19T05:24:31.553Z,45
2023-02-19T05:25:33.279Z,47
2023-02-19T05:26:35.418Z,46
2023-02-19T05:27:37.405Z,47
2023-02-19T05:28:39.899Z,47
2023-02-19T05:29:41.388Z,48
2023-02-19T05:30:42.399Z,48
2023-02-19T05:31:43.477Z,48
2023-02-19T05:32:44.394Z,48
2023-02-19T05:33:45.397Z,46
2023-02-19T05:34:46.378Z,46
2023-02-19T05:35:47.378Z,46
2023-02-19T05:36:48.367Z,45
2023-02-19T05:37:49.406Z,46
2023-02-19T05:38:50.399Z,47
2023-02-19T05:39:51.406Z,47
2023-02-19T05:40:52.319Z,46
2023-02-19T05:41:53.321Z,47
2023-02-19T05:42:54.481Z,46
2023-02-19T05:43:55.369Z,46
2023-02-19T05:44:56.312Z,46
2023-02-19T05:45:57.329Z,44
2023-02-19T05:46:58.458Z,45
2023-02-19T05:47:59.327Z,45
2023-02-19T05:49:00.459Z,45
2023-02-19T05:50:01.398Z,45
2023-02-19T05:51:02.438Z,46
2023-02-19T05:52:03.490Z,45
2023-02-19T05:53:04.543Z,46
2023-02-19T05:54:06.421Z,46
2023-02-19T05:55:07.386Z,47
2023-02-19T05:56:08.400Z,48
2023-02-19T05:57:09.334Z,47
2023-02-19T05:58:10.439Z,47
2023-02-19T05:59:11.420Z,47
2023-02-19T06:00:12.379Z,46
2023-02-19T06:01:13.339Z,47
2023-02-19T06:02:14.289Z,49
2023-02-19T06:03:15.287Z,46
2023-02-19T06:04:16.455Z,46
2023-02-19T06:05:17.338Z,46
2023-02-19T06:06:18.407Z,47
2023-02-19T06:07:19.407Z,48
2023-02-19T06:08:20.379Z,48
2023-02-19T06:09:21.271Z,48
2023-02-19T06:10:22.378Z,47
2023-02-19T06:11:23.361Z,48
2023-02-19T06:12:24.459Z,48
2023-02-19T06:13:25.390Z,47
2023-02-19T06:14:26.306Z,46
2023-02-19T06:15:27.448Z,47
2023-02-19T06:16:28.451Z,47
2023-02-19T06:17:29.400Z,47
2023-02-19T06:18:30.376Z,47
2023-02-19T06:19:31.399Z,47
2023-02-19T06:20:32.419Z,45
2023-02-19T06:21:33.469Z,45
2023-02-19T06:22:35.379Z,45
2023-02-19T06:23:36.382Z,46
2023-02-19T06:24:37.339Z,46
2023-02-19T06:25:38.456Z,46
2023-02-19T06:26:39.379Z,47
2023-02-19T06:27:40.419Z,48
2023-02-19T06:28:41.364Z,47
2023-02-19T06:29:42.522Z,46
2023-02-19T06:30:43.324Z,46
2023-02-19T06:31:44.449Z,47
2023-02-19T06:32:45.382Z,48
2023-02-19T06:33:46.453Z,47
2023-02-19T06:34:47.331Z,47
2023-02-19T06:35:48.400Z,46
2023-02-19T06:36:49.446Z,45
2023-02-19T06:37:51.583Z,45
2023-02-19T06:38:55.550Z,45
2023-02-19T06:39:58.463Z,45
2023-02-19T06:40:59.371Z,44
2023-02-19T06:42:00.327Z,42
2023-02-19T06:43:01.485Z,44
2023-02-19T06:44:02.378Z,44
2023-02-19T06:45:03.487Z,45
2023-02-19T06:46:07.222Z,45
2023-02-19T06:47:12.875Z,45
2023-02-19T06:48:21.234Z,44
2023-02-19T06:49:26.358Z,42
2023-02-19T06:50:31.524Z,42
2023-02-19T06:51:38.644Z,42
2023-02-19T06:52:43.308Z,59
2023-02-19T06:53:50.121Z,71
2023-02-19T06:54:54.853Z,60
2023-02-19T06:56:02.248Z,52
2023-02-19T06:57:07.614Z,46
2023-02-19T06:58:13.288Z,47
2023-02-19T06:59:17.326Z,47
2023-02-19T07:00:20.946Z,41
2023-02-19T07:01:25.810Z,41
2023-02-19T07:02:28.785Z,40
2023-02-19T07:03:30.735Z,37
2023-02-19T07:04:32.936Z,36
2023-02-19T07:05:35.032Z,35
2023-02-19T07:06:37.554Z,36
2023-02-19T07:07:39.382Z,36
2023-02-19T07:08:41.043Z,35
2023-02-19T07:09:44.501Z,35
2023-02-19T07:10:46.429Z,34
2023-02-19T07:11:47.313Z,33
2023-02-19T07:12:48.380Z,34
2023-02-19T07:13:49.740Z,33
2023-02-19T07:14:52.980Z,31
2023-02-19T07:15:54.781Z,31
2023-02-19T07:17:01.100Z,30
2023-02-19T07:18:06.726Z,30
2023-02-19T07:19:09.510Z,31
2023-02-19T07:20:10.579Z,31
2023-02-19T07:21:11.750Z,30
2023-02-19T07:22:12.294Z,30
2023-02-19T07:23:13.333Z,30
2023-02-19T07:24:19.030Z,30
2023-02-19T07:25:20.493Z,30
2023-02-19T07:26:21.523Z,30
2023-02-19T07:27:30.635Z,30
2023-02-19T07:28:35.619Z,29
2023-02-19T07:29:40.597Z,29
2023-02-19T07:30:46.339Z,29
2023-02-19T07:31:51.217Z,29
2023-02-19T07:32:58.578Z,29
2023-02-19T07:34:10.079Z,29
2023-02-19T07:35:14.420Z,29
2023-02-19T07:36:15.963Z,30
2023-02-19T07:37:18.076Z,29
2023-02-19T07:38:20.588Z,30
2023-02-19T07:39:23.961Z,30
2023-02-19T07:40:25.797Z,31
2023-02-19T07:41:27.707Z,36
2023-02-19T07:42:29.401Z,33
2023-02-19T07:43:31.428Z,35
2023-02-19T07:44:33.702Z,34
2023-02-19T07:45:35.586Z,29
2023-02-19T07:46:36.687Z,28
2023-02-19T07:47:41.498Z,25
2023-02-19T07:48:44.820Z,-1
2023-02-19T07:49:47.443Z,25
2023-02-19T07:50:50.225Z,26
2023-02-19T07:51:52.829Z,25
2023-02-19T07:52:56.785Z,25
2023-02-19T07:53:58.383Z,25
2023-02-19T07:55:00.564Z,23
2023-02-19T07:56:02.783Z,23
2023-02-19T07:57:04.825Z,23
2023-02-19T07:58:06.444Z,23
2023-02-19T07:59:09.392Z,24
2023-02-19T08:00:13.106Z,24
2023-02-19T08:01:15.588Z,25
2023-02-19T08:02:17.694Z,25
2023-02-19T08:03:19.202Z,25
2023-02-19T08:04:21.348Z,25
2023-02-19T08:05:22.526Z,25
2023-02-19T08:06:25.045Z,25
2023-02-19T08:07:27.309Z,24
2023-02-19T08:08:31.427Z,24
2023-02-19T08:09:37.954Z,25
2023-02-19T08:10:41.837Z,25
2023-02-19T08:11:44.426Z,25
2023-02-19T08:12:47.845Z,25
2023-02-19T08:13:49.698Z,26
2023-02-19T08:14:52.289Z,25
2023-02-19T08:15:57.733Z,25
2023-02-19T08:16:57.499Z,25
2023-02-19T08:18:01.343Z,25
2023-02-19T08:19:04.983Z,25
2023-02-19T08:20:09.071Z,26
2023-02-19T08:21:12.798Z,25
2023-02-19T08:22:14.432Z,25
2023-02-19T08:23:17.503Z,25
2023-02-19T08:24:20.663Z,25
2023-02-19T08:25:23.381Z,26
2023-02-19T08:26:25.903Z,25
2023-02-19T08:27:28.983Z,25
2023-02-19T08:28:32.275Z,25
2023-02-19T08:29:33.393Z,26
2023-02-19T08:30:34.793Z,26
2023-02-19T08:31:37.429Z,27
2023-02-19T08:32:38.860Z,28
2023-02-19T08:33:41.031Z,27
2023-02-19T08:34:42.374Z,26
2023-02-19T08:35:44.682Z,27
2023-02-19T08:36:47.404Z,27
2023-02-19T08:37:51.411Z,28
2023-02-19T08:38:52.445Z,28
2023-02-19T08:39:54.885Z,28
2023-02-19T08:40:58.195Z,28
2023-02-19T08:42:02.770Z,28
2023-02-19T08:43:06.346Z,26
2023-02-19T08:44:09.723Z,25
2023-02-19T08:45:12.582Z,24
2023-02-19T08:46:14.477Z,25
2023-02-19T08:47:16.644Z,25
2023-02-19T08:48:19.861Z,25
2023-02-19T08:49:21.434Z,25
2023-02-19T08:50:24.408Z,24
2023-02-19T08:51:27.556Z,23
2023-02-19T08:52:29.976Z,23
2023-02-19T08:53:34.940Z,23
2023-02-19T08:54:38.152Z,23
2023-02-19T08:55:41.559Z,25
2023-02-19T08:56:44.949Z,24
2023-02-19T08:57:49.759Z,23
2023-02-19T08:58:50.478Z,23
2023-02-19T08:59:52.939Z,24
2023-02-19T09:00:56.655Z,26
2023-02-19T09:01:59.862Z,26
2023-02-19T09:03:02.419Z,25
2023-02-19T09:04:06.935Z,25
2023-02-19T09:05:10.499Z,25
2023-02-19T09:06:15.223Z,26
2023-02-19T09:07:17.449Z,27
2023-02-19T09:08:20.511Z,27
2023-02-19T09:09:23.883Z,27
2023-02-19T09:10:27.772Z,28
2023-02-19T09:11:31.264Z,28
2023-02-19T09:12:34.568Z,28
2023-02-19T09:13:37.161Z,28
2023-02-19T09:14:41.258Z,28
2023-02-19T09:15:44.563Z,29
2023-02-19T09:16:47.647Z,30
2023-02-19T09:17:51.599Z,30
2023-02-19T09:18:54.768Z,30
2023-02-19T09:19:58.139Z,29
2023-02-19T09:21:00.159Z,29
2023-02-19T09:22:02.172Z,29
2023-02-19T09:23:05.943Z,30
2023-02-19T09:24:11.702Z,33
2023-02-19T09:25:15.724Z,34
2023-02-19T09:26:20.721Z,33
2023-02-19T09:27:25.940Z,31
2023-02-19T09:28:28.175Z,31
2023-02-19T09:29:30.389Z,31
2023-02-19T09:30:32.928Z,34
2023-02-19T09:31:35.735Z,34
2023-02-19T09:32:39.593Z,34
2023-02-19T09:33:43.524Z,34
2023-02-19T09:34:46.837Z,34
2023-02-19T09:35:49.925Z,35
2023-02-19T09:36:52.982Z,37
2023-02-19T09:37:54.387Z,35
2023-02-19T09:38:55.485Z,35
2023-02-19T09:39:57.585Z,35
2023-02-19T09:41:00.524Z,36
2023-02-19T09:42:05.104Z,35
2023-02-19T09:43:07.465Z,33
2023-02-19T09:44:09.185Z,31
2023-02-19T09:45:11.564Z,31
2023-02-19T09:46:13.464Z,33
2023-02-19T09:47:15.486Z,33
2023-02-19T09:48:18.120Z,35
2023-02-19T09:49:21.384Z,33
2023-02-19T09:50:24.524Z,34
2023-02-19T09:51:28.279Z,31
2023-02-19T09:52:32.067Z,29
2023-02-19T09:53:34.269Z,30
2023-02-19T09:54:35.570Z,29
2023-02-19T09:55:38.275Z,28
2023-02-19T09:56:41.864Z,29
2023-02-19T09:57:45.263Z,29
2023-02-19T09:58:48.762Z,29
2023-02-19T09:59:52.959Z,29
2023-02-19T10:00:57.031Z,30
2023-02-19T10:01:58.461Z,33
2023-02-19T10:03:00.594Z,33
2023-02-19T10:04:03.696Z,36
2023-02-19T10:05:06.595Z,37
2023-02-19T10:06:11.334Z,33
2023-02-19T10:07:11.399Z,31
2023-02-19T10:08:17.568Z,33
2023-02-19T10:09:20.180Z,29
2023-02-19T10:10:23.226Z,29
2023-02-19T10:11:24.855Z,29
2023-02-19T10:12:27.498Z,29
2023-02-19T10:13:29.202Z,29
2023-02-19T10:14:31.401Z,27
2023-02-19T10:15:34.060Z,27
2023-02-19T10:16:37.499Z,26
2023-02-19T10:17:40.749Z,27
2023-02-19T10:18:43.338Z,27
2023-02-19T10:19:45.518Z,27
2023-02-19T10:20:49.320Z,26
2023-02-19T10:21:52.681Z,26
2023-02-19T10:22:56.194Z,26
2023-02-19T10:23:58.531Z,27
2023-02-19T10:25:00.281Z,26
2023-02-19T10:26:02.689Z,26
2023-02-19T10:27:05.407Z,26
2023-02-19T10:28:07.807Z,27
2023-02-19T10:29:10.581Z,26
2023-02-19T10:30:15.794Z,26
2023-02-19T10:31:20.873Z,28
2023-02-19T10:32:23.770Z,27
2023-02-19T10:33:27.241Z,27
2023-02-19T10:34:30.659Z,27
2023-02-19T10:35:36.852Z,26
2023-02-19T10:36:39.589Z,26
2023-02-19T10:37:41.279Z,25
2023-02-19T10:38:45.262Z,24
2023-02-19T10:39:48.041Z,23
2023-02-19T10:40:50.215Z,23
2023-02-19T10:41:52.800Z,23
2023-02-19T10:42:56.607Z,23
2023-02-19T10:43:58.559Z,23
2023-02-19T10:44:59.882Z,23
2023-02-19T10:46:01.620Z,23
2023-02-19T10:47:04.181Z,23
2023-02-19T10:48:06.299Z,23
2023-02-19T10:49:09.911Z,23
2023-02-19T10:50:12.606Z,24
2023-02-19T10:51:15.271Z,25
2023-02-19T10:52:17.283Z,26
2023-02-19T10:53:20.354Z,27
2023-02-19T10:54:22.754Z,29
2023-02-19T10:55:28.834Z,30
2023-02-19T10:56:32.081Z,28
2023-02-19T10:57:37.301Z,26
2023-02-19T10:58:41.579Z,25
2023-02-19T10:59:47.784Z,26
2023-02-19T11:00:52.868Z,27
2023-02-19T11:01:55.742Z,28
2023-02-19T11:03:00.094Z,27
2023-02-19T11:04:02.870Z,26
2023-02-19T11:05:11.682Z,25
2023-02-19T11:06:15.426Z,24
2023-02-19T11:07:18.511Z,24
2023-02-19T11:08:21.316Z,23
2023-02-19T11:09:23.459Z,23
2023-02-19T11:10:27.841Z,24
2023-02-19T11:11:31.831Z,24
2023-02-19T11:12:35.526Z,23
2023-02-19T11:13:40.599Z,20
2023-02-19T11:14:44.061Z,19
2023-02-19T11:15:47.446Z,20
2023-02-19T11:16:49.436Z,19
2023-02-19T11:17:51.588Z,19
2023-02-19T11:18:56.645Z,19
2023-02-19T11:19:56.313Z,20
2023-02-19T11:20:58.220Z,20
2023-02-19T11:22:00.522Z,19
2023-02-19T11:23:04.499Z,20
2023-02-19T11:24:06.386Z,19
2023-02-19T11:25:08.212Z,18
2023-02-19T11:26:10.497Z,18
2023-02-19T11:27:13.570Z,19
2023-02-19T11:28:17.357Z,18
2023-02-19T11:29:21.279Z,17
2023-02-19T11:30:23.630Z,16
2023-02-19T11:31:26.026Z,17
2023-02-19T11:32:29.230Z,17
2023-02-19T11:33:31.918Z,17
2023-02-19T11:34:35.822Z,18
2023-02-19T11:35:39.771Z,19
2023-02-19T11:36:42.301Z,18
2023-02-19T11:37:47.054Z,17
2023-02-19T11:38:49.668Z,17
2023-02-19T11:39:52.692Z,18
2023-02-19T11:40:54.828Z,18
2023-02-19T11:41:58.531Z,23
2023-02-19T11:43:01.768Z,22
2023-02-19T11:44:04.938Z,20
2023-02-19T11:45:10.190Z,20
2023-02-19T11:46:14.812Z,17
2023-02-19T11:47:17.625Z,17
2023-02-19T11:48:21.278Z,17
2023-02-19T11:49:23.784Z,17
2023-02-19T11:50:26.964Z,18
2023-02-19T11:51:29.165Z,18
2023-02-19T11:52:33.403Z,17
2023-02-19T11:53:40.267Z,17
2023-02-19T11:54:42.967Z,17
2023-02-19T11:55:45.256Z,17
2023-02-19T11:56:48.604Z,16
2023-02-19T11:57:51.662Z,15
2023-02-19T11:58:54.381Z,15
2023-02-19T11:59:55.549Z,14
2023-02-19T12:00:58.401Z,14
2023-02-19T12:02:00.930Z,14
2023-02-19T12:03:05.421Z,13
2023-02-19T12:04:08.289Z,13
2023-02-19T12:05:10.583Z,13
2023-02-19T12:06:14.182Z,13
2023-02-19T12:07:17.015Z,13
2023-02-19T12:08:19.720Z,14
2023-02-19T12:09:22.886Z,14
2023-02-19T12:10:24.680Z,14
2023-02-19T12:11:26.731Z,13
2023-02-19T12:12:29.610Z,13
2023-02-19T12:13:33.172Z,13
2023-02-19T12:14:34.668Z,13
2023-02-19T12:15:36.740Z,13
2023-02-19T12:16:39.889Z,13
2023-02-19T12:17:41.795Z,13
2023-02-19T12:18:47.283Z,13
2023-02-19T12:19:49.599Z,14
2023-02-19T12:20:50.555Z,13
2023-02-19T12:21:51.546Z,12
2023-02-19T12:22:54.989Z,12
2023-02-19T12:23:56.609Z,11
2023-02-19T12:25:00.100Z,11
2023-02-19T12:26:09.383Z,11
2023-02-19T12:27:12.721Z,11
2023-02-19T12:28:15.639Z,12
2023-02-19T12:29:16.698Z,12
2023-02-19T12:30:17.712Z,12
2023-02-19T12:31:18.668Z,12
2023-02-19T12:32:19.678Z,12
2023-02-19T12:33:21.625Z,13
2023-02-19T12:34:22.859Z,12
2023-02-19T12:35:26.306Z,12
2023-02-19T12:36:28.579Z,12
2023-02-19T12:37:31.117Z,11
2023-02-19T12:38:33.747Z,12
2023-02-19T12:39:36.600Z,12
2023-02-19T12:40:38.587Z,12
2023-02-19T12:41:39.622Z,12
2023-02-19T12:42:40.849Z,12
2023-02-19T12:43:42.569Z,11
2023-02-19T12:44:43.685Z,11
2023-02-19T12:45:48.287Z,12
2023-02-19T12:46:52.440Z,12
2023-02-19T12:47:58.010Z,12
2023-02-19T12:49:01.444Z,12
2023-02-19T12:50:08.161Z,12
2023-02-19T12:51:12.183Z,12
2023-02-19T12:52:16.567Z,13
2023-02-19T12:53:21.561Z,11
2023-02-19T12:54:23.921Z,11
2023-02-19T12:55:27.303Z,11
2023-02-19T12:56:28.478Z,9
2023-02-19T12:57:29.543Z,11
2023-02-19T12:58:30.644Z,12
2023-02-19T12:59:36.504Z,12
2023-02-19T13:00:40.804Z,12
2023-02-19T13:01:43.552Z,9
2023-02-19T13:02:44.826Z,10
2023-02-19T13:03:47.451Z,9
2023-02-19T13:04:49.704Z,9
2023-02-19T13:05:50.562Z,9
2023-02-19T13:06:52.426Z,9
2023-02-19T13:07:55.988Z,9
2023-02-19T13:09:06.230Z,8
2023-02-19T13:10:02.185Z,9
2023-02-19T13:11:06.452Z,11
2023-02-19T13:12:10.050Z,11
2023-02-19T13:13:14.124Z,9
2023-02-19T13:14:22.614Z,9
2023-02-19T13:15:25.010Z,8
2023-02-19T13:16:28.100Z,8
2023-02-19T13:17:31.247Z,8
2023-02-19T13:18:33.786Z,9
2023-02-19T13:19:36.673Z,9
2023-02-19T13:20:40.570Z,8
2023-02-19T13:21:44.608Z,8
2023-02-19T13:22:48.397Z,11
2023-02-19T13:23:51.581Z,11
2023-02-19T13:24:54.348Z,11
2023-02-19T13:25:57.906Z,9
2023-02-19T13:27:01.395Z,9
2023-02-19T13:28:04.948Z,-1
2023-02-19T13:29:07.570Z,9
2023-02-19T13:30:11.109Z,9
2023-02-19T13:31:14.167Z,8
2023-02-19T13:32:17.432Z,9
2023-02-19T13:33:22.366Z,9
2023-02-19T13:34:28.914Z,9
2023-02-19T13:35:35.453Z,9
2023-02-19T13:36:42.926Z,9
2023-02-19T13:37:46.818Z,11
2023-02-19T13:38:50.924Z,9
2023-02-19T13:39:55.245Z,11
2023-02-19T13:41:00.237Z,9
2023-02-19T13:42:05.623Z,9
2023-02-19T13:43:09.119Z,11
2023-02-19T13:44:13.886Z,8
2023-02-19T13:45:17.364Z,8
2023-02-19T13:46:18.591Z,8
2023-02-19T13:47:22.124Z,8
2023-02-19T13:48:26.508Z,8
2023-02-19T13:49:28.600Z,8
2023-02-19T13:50:31.097Z,8
2023-02-19T13:51:33.583Z,8
2023-02-19T13:52:36.503Z,8
2023-02-19T13:53:38.709Z,8
2023-02-19T13:54:41.586Z,8
2023-02-19T13:55:44.944Z,8
2023-02-19T13:56:47.643Z,9
2023-02-19T13:57:52.203Z,11
2023-02-19T13:58:55.673Z,9
2023-02-19T13:59:57.825Z,9
2023-02-19T14:00:59.604Z,8
2023-02-19T14:02:01.552Z,11
2023-02-19T14:03:02.946Z,8
2023-02-19T14:04:04.731Z,8
2023-02-19T14:05:07.584Z,8
2023-02-19T14:06:09.671Z,8
2023-02-19T14:07:11.474Z,9
2023-02-19T14:08:13.643Z,8
2023-02-19T14:09:15.882Z,8
2023-02-19T14:10:17.829Z,8
2023-02-19T14:11:19.954Z,8
2023-02-19T14:12:22.513Z,8
2023-02-19T14:13:25.005Z,8
2023-02-19T14:14:27.563Z,7
2023-02-19T14:15:29.751Z,7
2023-02-19T14:16:32.613Z,7
2023-02-19T14:17:35.705Z,7
2023-02-19T14:18:37.646Z,6
2023-02-19T14:19:40.502Z,7
2023-02-19T14:20:43.979Z,8
2023-02-19T14:21:47.722Z,7
2023-02-19T14:22:50.419Z,7
2023-02-19T14:23:52.601Z,7
2023-02-19T14:24:54.657Z,7
2023-02-19T14:25:56.968Z,7
2023-02-19T14:26:59.520Z,8
2023-02-19T14:28:02.515Z,8
2023-02-19T14:29:05.249Z,8
2023-02-19T14:30:06.673Z,7
2023-02-19T14:31:08.629Z,7
2023-02-19T14:32:11.267Z,7
2023-02-19T14:33:13.554Z,7
2023-02-19T14:34:15.705Z,7
2023-02-19T14:35:17.685Z,7
2023-02-19T14:36:20.717Z,8
2023-02-19T14:37:23.559Z,7
2023-02-19T14:38:26.944Z,7
2023-02-19T14:39:28.613Z,7
2023-02-19T14:40:29.914Z,7
2023-02-19T14:41:32.681Z,6
2023-02-19T14:42:35.037Z,7
2023-02-19T14:43:37.909Z,7
2023-02-19T14:44:39.616Z,8
2023-02-19T14:45:41.218Z,7
2023-02-19T14:46:43.644Z,7
2023-02-19T14:47:45.138Z,6
2023-02-19T14:48:48.433Z,6
2023-02-19T14:49:52.078Z,7
2023-02-19T14:50:54.778Z,7
2023-02-19T14:51:58.544Z,7
2023-02-19T14:52:59.877Z,7
2023-02-19T14:54:02.706Z,7
2023-02-19T14:55:06.065Z,7